Time;durP1;ratioP1;P1;durP2;ratioP2;P2;SDS_P1;SDS_P2;PMS_P1;PMS_P2;Temp;Humidity;BMP_temperature;BMP_pressure;BME280_temperature;BME280_humidity;BME280_pressure;Samples;Min_cycle;Max_cycle;Signal;HPM_P1;HPM_P2
2022/04/09 00:01:30;;;;;;;5.42;2.50;;;;;;;6.76;61.59;99211.65;1756764;80;21552;-53
2022/04/09 00:03:57;;;;;;;6.25;2.67;;;;;;;6.66;61.79;99204.58;1748246;81;21082;-53
2022/04/09 00:06:24;;;;;;;5.20;2.47;;;;;;;6.58;62.00;99208.30;1752461;81;21115;-53
2022/04/09 00:08:50;;;;;;;7.03;2.70;;;;;;;6.50;62.18;99205.00;1756681;81;22244;-53
2022/04/09 00:11:19;;;;;;;5.33;2.77;;;;;;;6.45;62.38;99200.63;1755768;81;21039;-52
2022/04/09 00:13:47;;;;;;;5.35;2.10;;;;;;;6.49;62.48;99194.70;1756952;80;21101;-53
2022/04/09 00:16:14;;;;;;;6.85;2.80;;;;;;;6.50;62.56;99189.32;1753487;80;21021;-53
2022/04/09 00:18:43;;;;;;;5.92;2.72;;;;;;;6.50;62.69;99188.02;1754566;80;21749;-53
2022/04/09 00:21:11;;;;;;;5.95;2.65;;;;;;;6.51;62.87;99182.33;1755661;80;21449;-53
2022/04/09 00:23:39;;;;;;;6.75;3.00;;;;;;;6.49;62.96;99179.02;1763634;80;21090;-54
2022/04/09 00:26:06;;;;;;;7.37;3.08;;;;;;;6.48;63.05;99180.78;1757921;80;21535;-53
2022/04/09 00:28:32;;;;;;;12.37;2.85;;;;;;;6.47;63.05;99189.59;1761279;80;21042;-52
2022/04/09 00:30:59;;;;;;;6.10;3.05;;;;;;;6.41;63.14;99199.72;1764550;80;21146;-53
2022/04/09 00:33:26;;;;;;;7.83;3.10;;;;;;;6.40;63.19;99201.97;1755683;80;21025;-53
2022/04/09 00:35:53;;;;;;;8.58;3.15;;;;;;;6.34;63.29;99204.62;1745566;82;21072;-53
2022/04/09 00:38:20;;;;;;;6.58;2.60;;;;;;;6.29;63.36;99214.61;1752154;80;21018;-53
2022/04/09 00:40:47;;;;;;;7.65;3.15;;;;;;;6.22;63.48;99206.89;1758490;80;21094;-53
2022/04/09 00:43:14;;;;;;;8.90;3.25;;;;;;;6.17;63.65;99198.60;1762510;80;21151;-52
2022/04/09 00:45:41;;;;;;;6.03;2.85;;;;;;;6.13;63.78;99198.84;1760973;80;20998;-52
2022/04/09 00:48:10;;;;;;;7.97;3.17;;;;;;;6.15;63.83;99197.41;1757828;80;21726;-52
2022/04/09 00:50:39;;;;;;;6.25;2.30;;;;;;;6.23;63.87;99199.42;1759421;80;21811;-52
2022/04/09 00:53:11;;;;;;;5.90;2.58;;;;;;;6.32;63.84;99205.19;1760019;79;21048;-54
2022/04/09 00:58:21;;;;;;;6.03;3.22;;;;;;;6.50;63.87;99208.09;1756051;80;21092;-53
2022/04/09 01:00:48;;;;;;;6.28;2.90;;;;;;;6.56;63.72;99210.22;1753872;80;21055;-53
2022/04/09 01:03:19;;;;;;;5.22;2.60;;;;;;;6.62;63.80;99211.03;1767418;79;21057;-54
2022/04/09 01:05:48;;;;;;;5.17;2.60;;;;;;;6.69;63.58;99207.41;1759353;80;21536;-53
2022/04/09 01:08:17;;;;;;;6.87;3.30;;;;;;;6.74;63.46;99206.58;1762799;80;21597;-53
2022/04/09 01:10:50;;;;;;;5.28;2.45;;;;;;;6.81;63.26;99199.05;1760932;80;21058;-53
2022/04/09 01:13:19;;;;;;;5.15;2.33;;;;;;;6.81;63.02;99197.26;1757291;80;21630;-53
2022/04/09 01:15:46;;;;;;;7.72;2.92;;;;;;;6.78;62.88;99194.89;1756086;80;21079;-53
2022/04/09 01:18:15;;;;;;;7.03;2.40;;;;;;;6.77;62.93;99193.22;1759134;80;21122;-53
2022/04/09 01:20:44;;;;;;;6.75;2.95;;;;;;;6.78;62.90;99190.16;1761159;80;21366;-53
2022/04/09 01:23:11;;;;;;;6.10;2.22;;;;;;;6.78;62.91;99194.08;1761615;80;21858;-53
2022/04/09 01:25:38;;;;;;;7.22;3.17;;;;;;;6.78;62.88;99198.81;1755584;80;21104;-55
2022/04/09 01:28:06;;;;;;;7.03;3.12;;;;;;;6.81;62.81;99198.56;1731384;80;21113;-53
2022/04/09 01:30:32;;;;;;;4.90;2.30;;;;;;;6.91;62.65;99200.39;1761512;80;21071;-53
2022/04/09 01:32:59;;;;;;;4.75;2.27;;;;;;;6.96;62.65;99200.38;1759417;80;22359;-53
2022/04/09 01:35:27;;;;;;;6.53;2.50;;;;;;;7.04;62.51;99200.56;1759963;80;21449;-53
2022/04/09 01:37:54;;;;;;;5.60;2.45;;;;;;;7.11;62.45;99199.57;1761825;80;21050;-54
2022/04/09 01:40:21;;;;;;;5.78;2.60;;;;;;;7.14;62.38;99190.12;1763130;80;22180;-53
2022/04/09 01:42:50;;;;;;;6.85;2.58;;;;;;;7.15;62.22;99187.88;1760575;80;21561;-53
2022/04/09 01:45:18;;;;;;;5.47;2.37;;;;;;;7.14;62.17;99186.20;1765419;80;21128;-53
2022/04/09 01:47:46;;;;;;;8.08;3.27;;;;;;;7.13;62.18;99187.64;1757232;80;21078;-53
2022/04/09 01:50:14;;;;;;;7.28;2.70;;;;;;;7.11;62.19;99173.88;1761185;80;21039;-53
2022/04/09 01:52:43;;;;;;;5.62;2.80;;;;;;;7.10;62.18;99177.47;1761176;80;21035;-53
2022/04/09 01:55:11;;;;;;;6.33;2.40;;;;;;;7.06;62.13;99172.48;1760220;80;21049;-53
2022/04/09 01:57:39;;;;;;;6.25;2.70;;;;;;;7.05;62.15;99180.46;1752211;80;21106;-53
2022/04/09 02:00:10;;;;;;;7.05;2.65;;;;;;;7.02;62.19;99168.46;1763304;80;21074;-53
2022/04/09 02:02:41;;;;;;;6.60;2.65;;;;;;;7.00;62.25;99166.95;1767464;80;21079;-53
2022/04/09 02:05:11;;;;;;;6.35;2.67;;;;;;;6.95;62.37;99163.89;1760879;80;21109;-52
2022/04/09 02:07:39;;;;;;;6.22;2.62;;;;;;;6.95;62.42;99169.13;1730582;80;21046;-53
2022/04/09 02:10:08;;;;;;;5.97;2.62;;;;;;;7.02;62.44;99159.30;1757879;80;21835;-52
2022/04/09 02:12:37;;;;;;;5.65;2.75;;;;;;;7.10;62.53;99161.77;1763931;80;21037;-53
2022/04/09 02:15:10;;;;;;;6.17;2.60;;;;;;;7.17;62.58;99158.48;1762017;80;21099;-53
2022/04/09 02:17:38;;;;;;;5.80;2.47;;;;;;;7.24;62.57;99150.94;1756661;80;21098;-53
2022/04/09 02:20:07;;;;;;;5.70;2.52;;;;;;;7.28;62.50;99141.88;1758023;80;21067;-53
2022/04/09 02:22:38;;;;;;;5.60;2.40;;;;;;;7.31;62.46;99146.00;1757339;80;21029;-53
2022/04/09 02:25:08;;;;;;;5.33;2.37;;;;;;;7.32;62.58;99144.57;1765160;79;21831;-53
2022/04/09 02:27:36;;;;;;;5.78;2.87;;;;;;;7.31;62.79;99141.59;1765893;80;21040;-53
2022/04/09 02:30:05;;;;;;;6.95;2.60;;;;;;;7.31;63.09;99133.74;1729715;80;21730;-54
2022/04/09 02:32:51;;;;;;;6.10;2.30;;;;;;;7.29;63.23;99125.69;1730256;80;21064;-53
2022/04/09 02:35:22;;;;;;;4.67;2.35;;;;;;;7.25;63.37;99123.83;1761070;80;21836;-53
2022/04/09 02:37:51;;;;;;;4.67;2.20;;;;;;;7.21;63.59;99114.11;1731937;80;21104;-53
2022/04/09 02:40:18;;;;;;;5.85;2.52;;;;;;;7.17;63.80;99104.86;1754356;80;21554;-53
2022/04/09 02:42:46;;;;;;;4.95;2.10;;;;;;;7.23;63.88;99099.59;1753318;80;21094;-53
2022/04/09 02:45:13;;;;;;;4.40;1.85;;;;;;;7.24;64.03;99090.27;1759149;80;21052;-53
2022/04/09 02:47:40;;;;;;;5.15;2.02;;;;;;;7.27;64.18;99075.29;1757659;80;21953;-53
2022/04/09 02:50:10;;;;;;;7.55;2.62;;;;;;;7.31;64.43;99074.87;1763838;80;21399;-53
2022/04/09 02:52:40;;;;;;;5.33;2.70;;;;;;;7.31;64.58;99073.56;1748768;80;21024;-53
2022/04/09 02:55:10;;;;;;;6.45;2.12;;;;;;;7.30;64.60;99072.41;1763960;80;21087;-54
2022/04/09 02:57:37;;;;;;;5.58;2.67;;;;;;;7.30;64.64;99071.11;1758533;80;21136;-54
2022/04/09 03:00:08;;;;;;;4.95;2.55;;;;;;;7.28;64.61;99058.61;1765848;80;22211;-53
2022/04/09 03:02:36;;;;;;;4.53;2.25;;;;;;;7.23;64.67;99066.40;1755275;80;21558;-53
2022/04/09 03:05:05;;;;;;;6.78;3.10;;;;;;;7.22;64.78;99062.60;1764688;80;22263;-53
2022/04/09 03:07:32;;;;;;;8.80;3.02;;;;;;;7.18;64.85;99059.92;1764122;80;21104;-53
2022/04/09 03:09:59;;;;;;;8.28;3.20;;;;;;;7.21;64.84;99064.41;1757258;80;21096;-53
2022/04/09 03:12:26;;;;;;;6.90;2.85;;;;;;;7.25;64.83;99065.78;1757438;80;21247;-53
2022/04/09 03:14:54;;;;;;;5.55;2.80;;;;;;;7.31;64.81;99066.20;1762292;80;21036;-53
2022/04/09 03:17:22;;;;;;;5.58;2.45;;;;;;;7.35;64.84;99073.66;1764117;80;21573;-53
2022/04/09 03:19:49;;;;;;;7.35;2.75;;;;;;;7.37;64.91;99068.29;1758816;80;21050;-53
2022/04/09 03:22:15;;;;;;;5.72;2.85;;;;;;;7.42;64.85;99070.02;1760123;80;21011;-52
2022/04/09 03:24:44;;;;;;;9.20;2.92;;;;;;;7.44;64.69;99051.89;1756343;80;21257;-53
2022/04/09 03:27:12;;;;;;;6.35;2.75;;;;;;;7.48;64.57;99043.78;1757193;80;21596;-53
2022/04/09 03:29:39;;;;;;;6.08;2.98;;;;;;;7.52;64.46;99044.69;1760689;81;21015;-54
2022/04/09 03:32:08;;;;;;;7.08;3.00;;;;;;;7.58;64.25;99034.14;1753540;81;21142;-53
2022/04/09 03:34:36;;;;;;;6.45;2.77;;;;;;;7.59;64.06;99039.23;1752119;80;21051;-53
2022/04/09 03:37:04;;;;;;;5.45;2.33;;;;;;;7.61;63.88;99041.72;1759338;80;21928;-53
2022/04/09 03:39:31;;;;;;;5.30;2.55;;;;;;;7.62;63.83;99046.83;1747929;80;21500;-53
2022/04/09 03:41:59;;;;;;;4.58;2.20;;;;;;;7.67;63.77;99050.84;1750300;80;21035;-54
2022/04/09 03:44:26;;;;;;;5.10;2.55;;;;;;;7.78;63.65;99059.85;1758658;80;21063;-53
2022/04/09 03:47:01;;;;;;;8.25;2.30;;;;;;;7.88;63.58;99049.38;1754568;81;21063;-53
2022/04/09 03:49:31;;;;;;;5.20;2.25;;;;;;;7.97;63.55;99057.73;1733082;81;22294;-53
2022/04/09 03:51:58;;;;;;;3.85;1.72;;;;;;;8.03;63.43;99055.85;1751702;80;21094;-53
2022/04/09 03:54:27;;;;;;;6.03;2.42;;;;;;;8.10;63.25;99054.35;1751273;80;21051;-53
2022/04/09 03:56:54;;;;;;;5.90;2.30;;;;;;;8.16;63.13;99049.02;1756813;80;21126;-53
2022/04/09 03:59:23;;;;;;;5.92;1.80;;;;;;;8.18;63.01;99048.39;1745732;80;21032;-53
2022/04/09 04:01:51;;;;;;;5.67;2.37;;;;;;;8.20;63.02;99060.86;1757486;81;21111;-53
2022/04/09 04:04:19;;;;;;;4.78;1.85;;;;;;;8.26;62.73;99081.28;1753431;80;21063;-53
2022/04/09 04:06:48;;;;;;;4.62;1.50;;;;;;;8.32;62.40;99108.25;1756799;81;20985;-53
2022/04/09 04:09:17;;;;;;;7.90;2.20;;;;;;;8.35;61.82;99130.25;1750607;79;21032;-53
2022/04/09 04:11:45;;;;;;;5.65;1.92;;;;;;;8.37;61.50;99138.80;1758298;80;21090;-53
2022/04/09 04:14:13;;;;;;;7.90;2.17;;;;;;;8.40;61.24;99142.09;1750906;79;21151;-53
2022/04/09 04:16:40;;;;;;;4.30;1.52;;;;;;;8.41;61.15;99155.56;1738398;81;21553;-53
2022/04/09 04:19:08;;;;;;;5.80;1.87;;;;;;;8.43;61.12;99165.45;1737879;81;21071;-53
2022/04/09 04:21:38;;;;;;;4.37;1.95;;;;;;;8.47;61.16;99153.25;1755473;80;21059;-53
2022/04/09 04:24:07;;;;;;;4.85;1.52;;;;;;;8.62;61.22;99164.10;1755592;80;21653;-53
2022/04/09 04:26:34;;;;;;;4.00;1.70;;;;;;;8.76;61.22;99164.17;1764354;80;21622;-53
2022/04/09 04:29:02;;;;;;;4.40;1.80;;;;;;;8.88;60.98;99166.97;1757064;80;21013;-52
2022/04/09 04:31:30;;;;;;;5.20;2.40;;;;;;;8.98;60.71;99168.26;1761109;80;21491;-53
2022/04/09 04:34:00;;;;;;;4.75;2.08;;;;;;;9.04;60.40;99162.91;1759958;80;21053;-53
2022/04/09 04:36:29;;;;;;;6.83;2.47;;;;;;;9.06;60.03;99173.62;1764673;80;21141;-53
2022/04/09 04:38:57;;;;;;;5.95;2.02;;;;;;;9.13;59.56;99172.57;1764832;80;21149;-53
2022/04/09 04:41:25;;;;;;;5.67;1.87;;;;;;;9.18;59.03;99166.86;1757854;80;21120;-53
2022/04/09 04:43:53;;;;;;;8.05;1.95;;;;;;;9.19;58.82;99163.28;1754901;80;21051;-53
2022/04/09 04:46:22;;;;;;;7.37;2.00;;;;;;;9.17;58.62;99143.73;1762313;80;22273;-54
2022/04/09 04:48:51;;;;;;;6.28;1.87;;;;;;;9.15;58.71;99156.68;1758999;80;21562;-53
2022/04/09 04:51:21;;;;;;;5.80;2.17;;;;;;;9.15;58.44;99160.62;1757527;80;21040;-54
2022/04/09 04:53:48;;;;;;;5.50;2.33;;;;;;;9.11;58.61;99149.09;1758423;80;21030;-53
2022/04/09 04:56:15;;;;;;;5.22;2.37;;;;;;;9.05;59.11;99152.28;1754188;80;21616;-53
2022/04/09 04:58:44;;;;;;;6.03;2.72;;;;;;;9.06;59.38;99146.53;1749829;80;21058;-53
2022/04/09 05:01:12;;;;;;;6.10;2.30;;;;;;;9.09;59.60;99141.85;1760381;80;21086;-53
2022/04/09 05:03:40;;;;;;;5.80;2.55;;;;;;;9.13;59.81;99146.78;1761198;80;21166;-53
2022/04/09 05:06:09;;;;;;;4.72;2.17;;;;;;;9.15;59.94;99132.56;1766028;80;21066;-53
2022/04/09 05:08:40;;;;;;;6.50;2.17;;;;;;;9.18;60.08;99131.44;1701958;82;21108;-54
2022/04/09 05:11:09;;;;;;;4.60;1.67;;;;;;;9.18;60.15;99128.34;1697160;82;21075;-53
2022/04/09 05:13:37;;;;;;;4.58;1.82;;;;;;;9.16;59.12;99118.95;1707503;82;21357;-53
2022/04/09 05:16:06;;;;;;;4.83;1.82;;;;;;;9.19;58.75;99114.23;1758207;80;21026;-53
2022/04/09 05:18:36;;;;;;;5.05;1.85;;;;;;;9.24;58.44;99112.49;1758353;80;21082;-53
2022/04/09 05:21:04;;;;;;;4.67;1.60;;;;;;;9.28;58.14;99104.69;1751438;80;21005;-53
2022/04/09 05:23:32;;;;;;;5.17;1.72;;;;;;;9.29;57.75;99105.82;1757251;80;21021;-53
2022/04/09 05:25:59;;;;;;;4.47;1.80;;;;;;;9.34;57.73;99106.70;1754314;80;21732;-53
2022/04/09 05:28:26;;;;;;;4.97;1.47;;;;;;;9.37;57.83;99099.86;1754494;80;21235;-53
2022/04/09 05:30:54;;;;;;;4.15;1.72;;;;;;;9.41;57.36;99103.83;1750055;81;21055;-54
2022/04/09 05:33:22;;;;;;;4.28;1.60;;;;;;;9.44;57.38;99100.91;1760015;80;21532;-53
2022/04/09 05:35:51;;;;;;;3.87;1.55;;;;;;;9.50;57.50;99085.08;1746289;80;22208;-53
2022/04/09 05:38:20;;;;;;;5.35;1.98;;;;;;;9.55;57.52;99078.89;1744064;80;21039;-53
2022/04/09 05:40:47;;;;;;;3.77;1.45;;;;;;;9.61;57.58;99080.09;1765546;79;21153;-53
2022/04/09 05:43:16;;;;;;;4.53;1.92;;;;;;;9.64;57.37;99074.54;1751961;80;21070;-53
2022/04/09 05:45:44;;;;;;;4.58;1.92;;;;;;;9.65;57.13;99074.39;1755722;80;21015;-54
2022/04/09 05:48:12;;;;;;;8.60;2.15;;;;;;;9.69;57.23;99072.79;1740681;80;21110;-53
2022/04/09 05:50:47;;;;;;;6.87;1.92;;;;;;;9.74;57.24;99062.16;1740757;80;21047;-54
2022/04/09 05:53:15;;;;;;;7.35;1.90;;;;;;;9.78;57.16;99069.25;1757403;81;21023;-54
2022/04/09 05:55:42;;;;;;;4.70;1.82;;;;;;;9.81;57.09;99065.83;1747246;81;21062;-57
2022/04/09 05:58:11;;;;;;;2.95;1.40;;;;;;;9.85;57.04;99060.63;1749501;80;21008;-54
2022/04/09 06:00:41;;;;;;;4.15;1.67;;;;;;;9.92;56.98;99065.27;1755582;80;21066;-54
2022/04/09 06:03:13;;;;;;;4.20;1.65;;;;;;;9.96;56.86;99057.43;1751873;80;21079;-54
2022/04/09 06:05:40;;;;;;;3.42;1.00;;;;;;;10.00;56.96;99056.14;1753206;81;21109;-54
2022/04/09 06:08:09;;;;;;;2.83;1.12;;;;;;;10.09;57.00;99051.30;1758398;80;21047;-52
2022/04/09 06:10:37;;;;;;;5.67;1.90;;;;;;;10.23;56.71;99053.86;1752058;80;21033;-55
2022/04/09 06:13:04;;;;;;;4.17;1.30;;;;;;;10.37;56.57;99047.24;1751679;79;21157;-52
2022/04/09 06:15:32;;;;;;;4.25;1.62;;;;;;;10.52;56.24;99047.50;1752669;80;21039;-53
2022/04/09 06:18:06;;;;;;;5.00;1.82;;;;;;;10.62;55.75;99047.41;1753247;80;21137;-53
2022/04/09 06:20:34;;;;;;;5.78;2.00;;;;;;;10.70;55.75;99035.62;1752150;79;21050;-53
2022/04/09 06:23:04;;;;;;;5.05;1.80;;;;;;;10.80;55.83;99035.50;1750956;81;21061;-53
2022/04/09 06:25:31;;;;;;;4.83;1.60;;;;;;;10.85;55.73;99026.14;1757645;80;21035;-68
2022/04/09 06:27:58;;;;;;;7.17;2.17;;;;;;;10.91;55.48;99023.36;1753403;80;21560;-54
2022/04/09 06:30:26;;;;;;;4.58;1.62;;;;;;;10.95;55.12;99018.13;1758045;81;21141;-54
2022/04/09 06:32:54;;;;;;;5.00;1.77;;;;;;;10.96;54.94;99010.08;1756864;80;20964;-54
2022/04/09 06:35:22;;;;;;;4.85;2.00;;;;;;;11.00;54.91;99005.81;1754749;80;21005;-54
2022/04/09 06:37:49;;;;;;;5.22;2.30;;;;;;;11.03;54.98;99002.84;1755896;80;21092;-54
2022/04/09 06:40:17;;;;;;;4.47;1.80;;;;;;;11.06;54.85;99007.32;1759267;80;21001;-54
2022/04/09 06:42:43;;;;;;;4.55;1.27;;;;;;;11.11;54.33;98998.45;1756726;81;21119;-54
2022/04/09 06:45:30;;;;;;;4.80;2.05;;;;;;;11.12;54.65;98998.77;1688932;83;21122;-54
2022/04/09 06:48:16;;;;;;;4.47;1.70;;;;;;;11.17;54.45;98994.34;1671315;83;21179;-54
2022/04/09 06:50:47;;;;;;;4.37;1.72;;;;;;;11.24;54.32;98989.26;1712888;81;21049;-53
2022/04/09 06:53:15;;;;;;;5.75;2.42;;;;;;;11.30;54.12;98987.30;1753317;80;21103;-55
2022/04/09 06:55:41;;;;;;;6.67;1.87;;;;;;;11.37;54.22;98986.98;1757968;79;21244;-54
2022/04/09 06:58:08;;;;;;;5.28;1.57;;;;;;;11.43;54.41;98977.13;1755867;81;21047;-54
2022/04/09 07:00:37;;;;;;;4.35;1.75;;;;;;;11.53;54.19;98977.79;1750134;80;22231;-54
2022/04/09 07:03:06;;;;;;;5.45;1.57;;;;;;;11.61;54.05;98981.41;1757013;80;21458;-54
2022/04/09 07:05:33;;;;;;;3.55;1.22;;;;;;;11.69;52.82;98980.09;1753903;80;21035;-54
2022/04/09 07:08:01;;;;;;;4.30;1.30;;;;;;;11.70;52.47;98973.34;1758341;80;21250;-54
2022/04/09 07:10:29;;;;;;;4.25;1.42;;;;;;;11.75;51.60;98972.02;1756995;81;21028;-54
2022/04/09 07:12:55;;;;;;;3.70;1.15;;;;;;;11.76;51.18;98978.45;1757788;80;21513;-54
2022/04/09 07:15:22;;;;;;;5.42;1.50;;;;;;;11.78;50.79;98983.55;1702733;82;21177;-54
2022/04/09 07:17:51;;;;;;;4.50;0.98;;;;;;;11.79;50.69;98990.48;1752040;80;21100;-53
2022/04/09 07:20:18;;;;;;;3.17;1.12;;;;;;;11.81;50.00;98988.50;1750874;80;21152;-53
2022/04/09 07:22:46;;;;;;;5.50;1.45;;;;;;;11.82;49.72;98984.89;1753234;80;21075;-54
2022/04/09 07:25:16;;;;;;;4.87;1.57;;;;;;;11.84;49.65;98983.72;1750677;80;21086;-53
2022/04/09 07:27:44;;;;;;;3.90;1.20;;;;;;;11.87;49.03;98987.84;1753344;80;21075;-52
2022/04/09 07:30:15;;;;;;;4.17;1.32;;;;;;;11.88;49.17;98981.09;1751215;80;21556;-52
2022/04/09 07:32:43;;;;;;;4.05;1.02;;;;;;;11.92;48.63;98978.98;1749807;81;21544;-53
2022/04/09 07:36:29;;;;;;;5.75;1.90;;;;;;;11.98;48.70;98988.03;1792112;77;22725;-52
2022/04/09 07:38:56;;;;;;;3.83;1.27;;;;;;;12.02;48.36;98986.22;1767678;79;21042;-52
2022/04/09 07:41:23;;;;;;;3.95;1.42;;;;;;;12.06;48.09;98987.52;1768329;80;21289;-52
2022/04/09 07:43:50;;;;;;;5.22;1.45;;;;;;;12.12;48.06;98984.73;1767784;80;20994;-52
2022/04/09 07:46:18;;;;;;;4.15;1.52;;;;;;;12.15;48.07;98984.37;1774089;79;21050;-53
2022/04/09 07:48:45;;;;;;;5.33;1.40;;;;;;;12.20;48.58;98978.60;1765227;79;21525;-53
2022/04/09 07:51:11;;;;;;;4.45;1.35;;;;;;;12.24;47.58;98987.84;1774033;79;20986;-53
2022/04/09 07:53:38;;;;;;;4.67;1.05;;;;;;;12.24;48.18;98988.66;1773585;80;21240;-54
2022/04/09 07:56:06;;;;;;;3.58;0.82;;;;;;;12.24;48.15;98983.88;1771245;78;20998;-53
2022/04/09 07:58:32;;;;;;;3.55;1.22;;;;;;;12.26;48.45;98985.85;1772846;80;21563;-53
2022/04/09 08:00:59;;;;;;;3.35;0.98;;;;;;;12.28;48.34;98983.86;1770332;78;21101;-53
2022/04/09 08:03:28;;;;;;;3.50;1.12;;;;;;;12.28;48.00;98981.23;1774705;80;21023;-53
2022/04/09 08:05:54;;;;;;;3.30;1.12;;;;;;;12.30;47.78;98981.06;1776446;78;21961;-54
2022/04/09 08:08:21;;;;;;;4.28;1.02;;;;;;;12.30;47.42;98979.23;1772096;80;20999;-54
2022/04/09 08:10:47;;;;;;;3.22;0.85;;;;;;;12.32;47.31;98985.16;1766282;80;21122;-53
2022/04/09 08:13:15;;;;;;;3.20;0.88;;;;;;;12.34;47.83;98977.92;1772051;79;22582;-51
2022/04/09 08:15:42;;;;;;;3.40;1.07;;;;;;;12.37;47.94;98976.27;1774676;80;21098;-52
2022/04/09 08:18:10;;;;;;;3.08;1.00;;;;;;;12.40;48.29;98974.59;1774966;80;21041;-52
2022/04/09 08:20:37;;;;;;;5.85;1.52;;;;;;;12.44;48.46;98969.32;1771997;78;21026;-52
2022/04/09 08:23:05;;;;;;;5.33;1.30;;;;;;;12.47;47.94;98965.50;1769426;79;21459;-52
2022/04/09 08:25:32;;;;;;;4.35;1.15;;;;;;;12.50;48.45;98969.63;1770762;78;21100;-52
2022/04/09 08:28:00;;;;;;;4.70;0.90;;;;;;;12.54;48.71;98967.81;1771682;80;21084;-51
2022/04/09 08:30:29;;;;;;;2.75;0.68;;;;;;;12.57;48.37;98963.48;1768696;79;21131;-52
2022/04/09 08:32:57;;;;;;;5.00;0.90;;;;;;;12.59;48.46;98959.36;1773060;79;21078;-53
2022/04/09 08:35:23;;;;;;;3.00;0.93;;;;;;;12.61;48.76;98956.89;1764357;80;21153;-52
2022/04/09 08:37:54;;;;;;;3.08;0.90;;;;;;;12.64;48.63;98964.95;1756039;80;21144;-52
2022/04/09 08:40:21;;;;;;;2.12;0.70;;;;;;;12.66;49.20;98955.07;1756959;79;21035;-53
2022/04/09 08:42:49;;;;;;;3.47;0.90;;;;;;;12.70;49.37;98964.78;1755732;81;21086;-53
2022/04/09 08:45:17;;;;;;;4.28;1.20;;;;;;;12.71;49.01;98955.85;1746633;80;21562;-52
2022/04/09 08:47:44;;;;;;;5.92;1.05;;;;;;;12.69;49.08;98961.30;1759807;80;21051;-52
2022/04/09 08:50:14;;;;;;;6.90;1.80;;;;;;;12.68;49.12;98959.67;1755936;79;21542;-52
2022/04/09 08:52:42;;;;;;;5.28;1.15;;;;;;;12.68;49.39;98955.72;1757818;81;21051;-52
2022/04/09 08:55:12;;;;;;;4.45;1.45;;;;;;;12.69;49.62;98952.56;1752379;80;21815;-52
2022/04/09 08:57:41;;;;;;;5.12;1.60;;;;;;;12.70;49.51;98959.50;1762013;79;21043;-52
2022/04/09 09:00:12;;;;;;;3.50;1.22;;;;;;;12.69;49.62;98951.25;1754963;80;21431;-52
2022/04/09 09:03:00;;;;;;;4.33;1.30;;;;;;;12.70;49.82;98945.80;1748142;81;21047;-53
2022/04/09 09:05:38;;;;;;;2.62;0.90;;;;;;;12.71;50.07;98950.09;1747191;81;22265;-53
2022/04/09 09:08:07;;;;;;;4.50;1.35;;;;;;;12.71;50.21;98942.66;1766010;79;21097;-52
2022/04/09 09:10:35;;;;;;;4.53;1.20;;;;;;;12.73;50.43;98945.46;1754197;80;21120;-53
2022/04/09 09:13:08;;;;;;;4.58;1.47;;;;;;;12.77;50.43;98942.79;1758831;81;21098;-53
2022/04/09 09:15:52;;;;;;;4.40;1.20;;;;;;;12.80;50.08;98946.41;1757458;79;21050;-52
2022/04/09 09:18:22;;;;;;;3.58;1.20;;;;;;;12.82;49.70;98939.13;1749880;80;21042;-53
2022/04/09 09:20:57;;;;;;;5.12;1.40;;;;;;;12.83;50.16;98943.43;1752760;80;21333;-52
2022/04/09 09:23:32;;;;;;;3.37;1.12;;;;;;;12.88;50.06;98943.40;1756119;81;21023;-54
2022/04/09 09:26:00;;;;;;;5.87;1.37;;;;;;;12.90;50.42;98944.88;1764905;80;21866;-54
2022/04/09 09:28:31;;;;;;;4.83;1.15;;;;;;;12.95;50.75;98936.45;1757186;81;21035;-54
2022/04/09 09:30:59;;;;;;;3.30;1.07;;;;;;;12.97;50.69;98945.83;1754478;79;21055;-53
2022/04/09 09:33:27;;;;;;;5.97;1.42;;;;;;;13.00;50.97;98939.39;1752432;79;21137;-52
2022/04/09 09:35:55;;;;;;;7.42;1.70;;;;;;;13.05;50.92;98941.02;1748975;79;21035;-52
2022/04/09 09:38:24;;;;;;;4.47;1.42;;;;;;;13.07;50.69;98940.84;1756717;80;21089;-52
2022/04/09 09:40:51;;;;;;;2.75;1.05;;;;;;;13.13;50.88;98939.64;1754624;80;21065;-52
2022/04/09 09:43:23;;;;;;;4.17;1.45;;;;;;;13.21;51.16;98933.47;1755483;81;21070;-52
2022/04/09 09:45:51;;;;;;;4.55;1.37;;;;;;;13.34;51.74;98929.78;1754152;80;21128;-52
2022/04/09 09:48:28;;;;;;;4.33;1.10;;;;;;;13.53;51.69;98921.89;1757221;79;21125;-52
2022/04/09 09:50:57;;;;;;;6.05;1.40;;;;;;;13.75;51.28;98915.41;1758741;80;21028;-53
2022/04/09 09:53:34;;;;;;;5.17;2.17;;;;;;;13.99;50.85;98915.69;1752154;79;21141;-52
2022/04/09 09:56:01;;;;;;;4.87;1.50;;;;;;;14.23;50.00;98904.52;1754452;81;20999;-52
2022/04/09 09:58:30;;;;;;;6.08;1.32;;;;;;;14.43;49.04;98906.92;1758917;81;21321;-51
2022/04/09 10:00:58;;;;;;;3.55;0.98;;;;;;;14.53;48.50;98902.68;1757540;79;21003;-52
2022/04/09 10:03:26;;;;;;;5.05;1.62;;;;;;;14.58;48.76;98892.88;1764649;80;21055;-52
2022/04/09 10:05:54;;;;;;;4.28;1.10;;;;;;;14.60;48.24;98889.05;1760273;79;21030;-53
2022/04/09 10:08:21;;;;;;;2.95;1.05;;;;;;;14.59;47.64;98882.13;1764710;80;21074;-53
2022/04/09 10:10:50;;;;;;;3.75;1.50;;;;;;;14.56;47.62;98888.23;1763158;79;21125;-53
2022/04/09 10:13:21;;;;;;;7.50;1.87;;;;;;;14.54;47.77;98883.64;1775611;79;21090;-52
2022/04/09 10:15:51;;;;;;;5.75;1.87;;;;;;;14.49;47.94;98876.25;1756999;79;21106;-52
2022/04/09 10:18:23;;;;;;;4.75;1.87;;;;;;;14.48;47.88;98875.44;1759899;81;21056;-53
2022/04/09 10:20:57;;;;;;;6.08;1.90;;;;;;;14.49;48.42;98869.63;1757091;79;21007;-53
2022/04/09 10:23:24;;;;;;;9.13;1.37;;;;;;;14.50;49.00;98864.16;1769068;80;21749;-54
2022/04/09 10:25:52;;;;;;;5.25;1.77;;;;;;;14.53;48.59;98865.63;1756680;80;21542;-53
2022/04/09 10:28:36;;;;;;;7.15;1.62;;;;;;;14.51;48.70;98863.67;1747041;81;21561;-53
2022/04/09 10:31:26;;;;;;;6.40;1.47;;;;;;;14.49;49.21;98861.69;1761432;79;21063;-53
2022/04/09 10:33:56;;;;;;;3.52;1.10;;;;;;;14.47;49.24;98857.94;1759415;80;21050;-54
2022/04/09 10:36:51;;;;;;;3.33;1.30;;;;;;;14.46;49.10;98862.09;1768875;79;21126;-53
2022/04/09 10:39:22;;;;;;;3.37;1.20;;;;;;;14.47;48.92;98857.09;1712484;80;21109;-54
2022/04/09 10:41:49;;;;;;;4.67;1.22;;;;;;;14.49;48.94;98863.02;1732757;80;21066;-53
2022/04/09 10:44:50;;;;;;;6.28;1.65;;;;;;;14.52;48.67;98859.19;1740364;80;21120;-54
2022/04/09 10:47:18;;;;;;;4.33;1.37;;;;;;;14.55;48.23;98853.02;1753423;81;21491;-54
2022/04/09 10:50:07;;;;;;;5.97;1.67;;;;;;;14.58;48.27;98859.27;1736431;80;21242;-53
2022/04/09 10:52:34;;;;;;;7.47;1.65;;;;;;;14.65;48.06;98859.38;1747731;82;21583;-53
2022/04/09 10:55:12;;;;;;;5.62;1.30;;;;;;;14.76;47.61;98858.05;1744038;80;21193;-53
2022/04/09 10:57:46;;;;;;;5.67;1.10;;;;;;;14.85;47.45;98859.08;1727220;80;21499;-53
2022/04/09 11:00:28;;;;;;;5.80;1.80;;;;;;;14.95;47.25;98855.32;1740430;80;21057;-53
2022/04/09 11:03:15;;;;;;;4.00;1.20;;;;;;;15.01;47.14;98850.58;1728189;82;21614;-53
2022/04/09 11:05:43;;;;;;;5.75;1.35;;;;;;;15.07;46.97;98852.48;1736335;80;21082;-53
2022/04/09 11:08:14;;;;;;;7.97;1.60;;;;;;;15.13;46.97;98847.75;1743684;81;21053;-53
2022/04/09 11:10:41;;;;;;;3.55;1.25;;;;;;;15.15;47.07;98848.38;1726731;80;21057;-52
2022/04/09 11:13:12;;;;;;;4.55;1.45;;;;;;;15.17;46.85;98834.95;1732097;82;21123;-52
2022/04/09 11:15:38;;;;;;;5.10;2.02;;;;;;;15.16;46.63;98831.97;1733653;80;21221;-53
2022/04/09 11:18:06;;;;;;;7.42;1.87;;;;;;;15.15;46.65;98831.67;1739504;82;21518;-53
2022/04/09 11:20:36;;;;;;;4.47;1.50;;;;;;;15.12;46.64;98834.70;1739725;80;21520;-54
2022/04/09 11:23:15;;;;;;;7.45;1.45;;;;;;;15.09;46.63;98833.23;1740200;81;21131;-53
2022/04/09 11:25:45;;;;;;;5.87;1.37;;;;;;;15.07;46.94;98827.83;1742112;80;21066;-52
2022/04/09 11:28:13;;;;;;;4.20;1.40;;;;;;;15.07;47.31;98825.17;1738577;80;22259;-52
2022/04/09 11:30:58;;;;;;;3.62;1.20;;;;;;;15.06;47.52;98816.39;1734008;80;21073;-53
2022/04/09 11:33:24;;;;;;;3.17;0.93;;;;;;;15.05;47.74;98806.31;1741722;82;21561;-53
2022/04/09 11:35:51;;;;;;;3.50;1.12;;;;;;;15.09;47.61;98796.66;1744004;80;21112;-52
2022/04/09 11:38:18;;;;;;;6.92;1.20;;;;;;;15.11;47.72;98799.93;1753895;79;21110;-52
2022/04/09 11:40:49;;;;;;;7.87;1.70;;;;;;;15.12;47.91;98790.47;1771283;80;21755;-52
2022/04/09 11:43:17;;;;;;;5.17;0.95;;;;;;;15.17;47.31;98789.91;1713991;80;21003;-52
2022/04/09 11:45:45;;;;;;;6.12;1.75;;;;;;;15.20;47.07;98790.33;1770832;79;21054;-52
2022/04/09 11:48:17;;;;;;;3.83;1.02;;;;;;;15.23;47.26;98787.79;1764049;80;21109;-53
2022/04/09 11:50:45;;;;;;;6.00;1.02;;;;;;;15.25;47.23;98795.06;1763598;80;21093;-53